메인 페이지
METAR-TAF:

METAR-TAF

공항 :

Tinker Air Force Base

오클라호마시티 / Tinker, 오클라호마, 미국

위도: 35-25N, 경도: 097-23W, 고도: 394m

현재 날씨관측

예보는 24분 전, 06:56시(UTC)에 발표되었습니다.
북서5kt
온도 10°C
습도 34%
기압 1019 hPa
시정: 16.1km
맑음

METAR: KTIK 220656Z AUTO 31005KT 10SM CLR 10/M05 A3009 RMK AO2 SLP193 T00981046

시각: 02:20 (07:20 UTC)

예보

예보는 6 시간 20분 전, 01:00시(UTC)에 발표되었습니다.
예보 대상 시간: 22일 01시부터 23일 07시까지 (UTC)
9kt
시정 10km 이상
고도 10000ft 상공 구름 조금
전환 중
22일 17시부터 22일 18시까지 (UTC)
서남서12kt, 순간 최대 풍속 18kt
시정 10km 이상
맑음
전환 중
22일 23시부터 22일 24시까지 (UTC)
남남서6kt
시정 10km 이상
맑음

TAF: KTIK 220100Z 2201/2307 28009KT 9999 FEW100 QNH2990INS BECMG 2217/2218 25012G18KT 9999 SKC QNH3010INS BECMG 2223/2224 20006KT 9999 SKC QNH3007INS TX19/2220Z TN04/2211Z

4,000개 이상의 공항 관측 자료 및 예보 (METAR 및 TAF 보고).

지도상에서 검색 가능한 기상관측소가 노란 점과 빨간 점으로 표시되어 있습니다.

기상관측소 명을 보려면 표시 위로 마우스를 이동하세요.

날씨 관측과 예보를 보려면 클릭하세요.

지도 변경 : 확대하려면 엑스 표시가 있는 녹색 버튼, 축소하려면 빼기 표시가 있는 녹색 버튼, 다음 페이지의 지도를 보려면 녹색 화살표를 클릭하세요.


METAR-TAF: